TimeEDT,TemperatureF,Dew PointF,Humidity,Sea Level PressureIn,VisibilityMPH,Wind Direction,Wind SpeedMPH,Gust SpeedMPH,PrecipitationIn,Events,Conditions,WindDirDegrees,DateUTC
12:02 AM,82.4,77.0,84,29.86,7.0,WSW,9.2,18.4,N/A,Thunderstorm,Thunderstorm,240,2013-09-03 04:02:00
12:41 AM,78.8,71.6,78,29.89,1.5,WSW,24.2,35.7,0.01,Rain-Thunderstorm,Thunderstorms and Rain,240,2013-09-03 04:41:00
12:48 AM,75.2,73.4,94,29.88,0.5,Variable,3.5,33.4,0.55,Fog-Rain-Thunderstorm,Heavy Thunderstorms and Rain,0,2013-09-03 04:48:00
12:51 AM,75.9,73.0,91,29.88,0.5,WNW,5.8,23.0,0.58,Fog-Rain-Thunderstorm,Light Thunderstorms and Rain,290,2013-09-03 04:51:00
12:53 AM,77.0,73.4,89,29.87,1.0,West,5.8,-,0.00,Rain-Thunderstorm,Light Thunderstorms and Rain,270,2013-09-03 04:53:00
12:55 AM,77.0,73.4,89,29.87,2.0,Variable,3.5,-,0.00,Rain-Thunderstorm,Light Thunderstorms and Rain,0,2013-09-03 04:55:00
1:02 AM,75.2,73.4,94,29.86,5.0,Calm,Calm,-,0.01,Rain-Thunderstorm,Light Thunderstorms and Rain,0,2013-09-03 05:02:00
1:20 AM,78.8,75.2,89,29.86,4.0,SW,12.7,17.3,0.01,Rain-Thunderstorm,Light Thunderstorms and Rain,230,2013-09-03 05:20:00
1:23 AM,78.8,75.2,89,29.86,1.8,WSW,13.8,19.6,0.04,Rain-Thunderstorm,Heavy Thunderstorms and Rain,250,2013-09-03 05:23:00
1:25 AM,78.8,75.2,89,29.86,1.2,WSW,10.4,19.6,0.13,Rain-Thunderstorm,Heavy Thunderstorms and Rain,250,2013-09-03 05:25:00
1:38 AM,80.6,77.0,89,29.84,1.8,SW,17.3,24.2,0.28,Rain-Thunderstorm,Thunderstorms and Rain,230,2013-09-03 05:38:00
1:45 AM,80.6,78.8,94,29.84,3.0,WSW,16.1,25.3,0.30,Rain-Thunderstorm,Light Rain,240,2013-09-03 05:45:00
1:51 AM,81.0,78.1,91,29.84,5.0,WSW,15.0,25.3,0.30,Rain-Thunderstorm,Light Rain,240,2013-09-03 05:51:00
2:36 AM,75.2,69.8,83,29.86,1.8,WSW,21.9,31.1,0.01,Rain-Thunderstorm,Thunderstorms and Rain,240,2013-09-03 06:36:00
2:42 AM,73.4,69.8,88,29.86,0.8,Variable,4.6,31.1,0.21,Rain-Thunderstorm,Heavy Thunderstorms and Rain,0,2013-09-03 06:42:00
2:49 AM,75.2,71.6,89,29.85,1.5,West,13.8,24.2,0.30,Rain-Thunderstorm,Thunderstorms and Rain,280,2013-09-03 06:49:00
2:51 AM,75.0,71.1,87,29.85,2.0,West,11.5,24.2,0.30,Rain-Thunderstorm,Thunderstorms and Rain,280,2013-09-03 06:51:00
2:58 AM,75.2,71.6,89,29.85,5.0,West,11.5,21.9,0.01,Rain-Thunderstorm,Light Thunderstorms and Rain,280,2013-09-03 06:58:00
3:33 AM,75.2,71.6,89,29.85,2.5,WSW,5.8,-,0.02,Rain-Thunderstorm,Light Thunderstorms and Rain,240,2013-09-03 07:33:00
3:43 AM,75.2,73.4,94,29.85,3.0,SW,5.8,-,0.04,Rain-Thunderstorm,Thunderstorms and Rain,230,2013-09-03 07:43:00
3:51 AM,77.0,73.9,90,29.86,4.0,SSW,9.2,-,0.05,Rain-Thunderstorm,Light Thunderstorms and Rain,210,2013-09-03 07:51:00
4:04 AM,77.0,73.4,89,29.85,5.0,SW,9.2,-,0.00,Rain,Light Rain,220,2013-09-03 08:04:00
4:15 AM,77.0,73.4,89,29.85,5.0,SSW,6.9,-,0.00,Thunderstorm,Partly Cloudy,210,2013-09-03 08:15:00
4:30 AM,78.8,75.2,89,29.85,6.0,South,10.4,-,0.00,,Scattered Clouds,180,2013-09-03 08:30:00
4:38 AM,77.0,73.4,89,29.85,7.0,South,15.0,-,0.00,,Mostly Cloudy,170,2013-09-03 08:38:00
4:51 AM,77.0,73.0,88,29.84,8.0,South,11.5,-,0.00,,Overcast,180,2013-09-03 08:51:00
5:20 AM,78.8,75.2,89,29.84,6.0,SW,6.9,-,N/A,,Scattered Clouds,220,2013-09-03 09:20:00
5:51 AM,79.0,75.9,90,29.84,5.0,SW,8.1,-,N/A,,Partly Cloudy,230,2013-09-03 09:51:00
6:33 AM,80.6,78.8,94,29.84,4.0,SW,5.8,-,0.00,,Mostly Cloudy,230,2013-09-03 10:33:00
6:51 AM,80.1,78.1,94,29.85,4.0,WSW,8.1,-,0.00,,Overcast,240,2013-09-03 10:51:00
7:29 AM,80.6,78.8,94,29.86,3.0,WSW,9.2,-,N/A,,Mostly Cloudy,240,2013-09-03 11:29:00
7:51 AM,81.0,78.1,91,29.87,4.0,WSW,9.2,-,N/A,,Scattered Clouds,240,2013-09-03 11:51:00
8:51 AM,82.0,77.0,85,29.87,6.0,WSW,10.4,-,N/A,,Haze,240,2013-09-03 12:51:00
9:51 AM,84.0,78.1,82,29.87,6.0,WSW,11.5,18.4,N/A,,Haze,250,2013-09-03 13:51:00
10:51 AM,84.0,77.0,79,29.89,7.0,WSW,13.8,19.6,N/A,,Clear,240,2013-09-03 14:51:00
11:51 AM,84.9,78.1,80,29.89,7.0,SW,11.5,18.4,N/A,,Clear,230,2013-09-03 15:51:00
12:51 PM,82.9,75.9,79,29.88,7.0,WSW,11.5,20.7,N/A,,Clear,240,2013-09-03 16:51:00
1:51 PM,86.0,75.9,72,29.86,8.0,SW,15.0,23.0,N/A,,Clear,230,2013-09-03 17:51:00
2:51 PM,84.9,77.0,77,29.84,8.0,SW,13.8,21.9,N/A,,Clear,230,2013-09-03 18:51:00
3:51 PM,84.0,75.9,76,29.86,7.0,WSW,11.5,21.9,N/A,,Clear,250,2013-09-03 19:51:00
4:11 PM,77.0,66.2,69,29.88,10.0,NW,13.8,28.8,N/A,,Mostly Cloudy,320,2013-09-03 20:11:00
4:19 PM,77.0,68.0,74,29.87,10.0,NW,11.5,25.3,N/A,,Overcast,320,2013-09-03 20:19:00
4:51 PM,77.0,70.0,79,29.87,10.0,NNW,9.2,-,0.00,Rain,Light Rain,330,2013-09-03 20:51:00
5:51 PM,79.0,66.9,66,29.89,10.0,Calm,Calm,-,0.00,Rain-Thunderstorm,Light Rain,0,2013-09-03 21:51:00
6:11 PM,75.2,69.8,83,29.89,2.5,NW,3.5,-,0.02,Rain,Rain,310,2013-09-03 22:11:00
6:26 PM,73.4,69.8,88,29.89,5.0,North,5.8,-,0.05,Rain,Light Rain,10,2013-09-03 22:26:00
6:51 PM,73.0,70.0,90,29.87,6.0,ENE,5.8,-,0.07,Rain,Light Rain,60,2013-09-03 22:51:00
7:51 PM,73.9,71.1,91,29.85,7.0,Calm,Calm,-,0.00,,Clear,0,2013-09-03 23:51:00
8:35 PM,75.2,71.6,89,29.88,10.0,South,6.9,-,0.00,Rain-Thunderstorm,Light Rain,180,2013-09-04 00:35:00
8:51 PM,75.9,71.1,85,29.89,9.0,South,8.1,-,0.00,Rain,Light Rain,170,2013-09-04 00:51:00
9:12 PM,75.2,71.6,89,29.88,7.0,SSE,5.8,-,0.01,Rain-Thunderstorm,Light Rain,150,2013-09-04 01:12:00
9:27 PM,75.2,71.6,89,29.89,10.0,South,8.1,-,0.02,Rain,Light Rain,180,2013-09-04 01:27:00
9:51 PM,75.9,71.1,85,29.91,10.0,SSW,8.1,-,0.02,,Clear,210,2013-09-04 01:51:00
10:51 PM,77.0,72.0,84,29.93,9.0,SSW,3.5,-,N/A,,Scattered Clouds,210,2013-09-04 02:51:00
10:59 PM,75.2,71.6,89,29.93,9.0,SSW,4.6,-,N/A,,Mostly Cloudy,210,2013-09-04 02:59:00
11:06 PM,75.2,73.4,94,29.94,8.0,WSW,3.5,-,0.00,Rain-Thunderstorm,Light Rain,250,2013-09-04 03:06:00
11:21 PM,75.2,73.4,94,29.92,10.0,South,5.8,-,0.00,Rain,Light Rain,170,2013-09-04 03:21:00
11:28 PM,77.0,73.4,89,29.93,9.0,South,3.5,-,0.00,,Mostly Cloudy,180,2013-09-04 03:28:00
11:51 PM,75.0,72.0,90,29.94,9.0,West,3.5,-,0.00,,Partly Cloudy,270,2013-09-04 03:51:00